Time;durP1;ratioP1;P1;durP2;ratioP2;P2;SDS_P1;SDS_P2;PMS_P1;PMS_P2;Temp;Humidity;BMP_temperature;BMP_pressure;BME280_temperature;BME280_humidity;BME280_pressure;Samples;Min_cycle;Max_cycle;Signal;HPM_P1;HPM_P2
2022/12/11 00:02:03;;;;;;;81.68;20.27;;;0.00;99.90;;;;;;5053711;28;20044;-80
2022/12/11 00:04:29;;;;;;;101.80;23.52;;;-0.10;99.90;;;;;;5053879;28;20045;-81
2022/12/11 00:06:55;;;;;;;108.63;22.95;;;-0.20;99.90;;;;;;5055237;28;20041;-81
2022/12/11 00:09:21;;;;;;;108.30;22.35;;;-0.10;99.90;;;;;;5053773;28;20546;-80
2022/12/11 00:11:47;;;;;;;109.13;22.67;;;-0.20;99.90;;;;;;5054156;28;20045;-80
2022/12/11 00:14:13;;;;;;;104.75;24.08;;;-0.20;99.90;;;;;;5054016;28;20392;-81
2022/12/11 00:16:39;;;;;;;103.20;22.85;;;-0.10;99.90;;;;;;5053907;28;20040;-81
2022/12/11 00:19:05;;;;;;;84.25;20.38;;;-0.10;99.90;;;;;;5053571;28;20049;-81
2022/12/11 00:21:32;;;;;;;100.78;22.05;;;-0.10;99.90;;;;;;5053358;28;20052;-80
2022/12/11 00:23:57;;;;;;;94.78;22.65;;;-0.20;99.90;;;;;;5054946;28;20053;-80
2022/12/11 00:26:23;;;;;;;118.90;23.45;;;-0.10;99.90;;;;;;5054661;28;20095;-80
2022/12/11 00:28:55;;;;;;;97.70;21.33;;;0.10;99.90;;;;;;5053425;28;20053;-80
2022/12/11 00:31:22;;;;;;;101.80;22.10;;;0.10;99.90;;;;;;5053343;28;20047;-80
2022/12/11 00:33:48;;;;;;;116.30;22.65;;;0.00;99.90;;;;;;5053363;28;20059;-80
2022/12/11 00:36:22;;;;;;;95.07;21.92;;;0.00;99.90;;;;;;5053287;28;20041;-80
2022/12/11 00:38:48;;;;;;;87.70;19.52;;;0.00;99.90;;;;;;5053410;28;20049;-80
2022/12/11 00:41:17;;;;;;;92.53;20.70;;;0.00;99.90;;;;;;5054494;28;20094;-80
2022/12/11 00:43:42;;;;;;;85.68;19.95;;;0.00;99.90;;;;;;5053397;28;20049;-80
2022/12/11 00:46:09;;;;;;;105.50;23.35;;;0.00;99.90;;;;;;5053105;28;20154;-80
2022/12/11 00:48:35;;;;;;;88.85;22.00;;;0.10;99.90;;;;;;5053163;28;20049;-80
2022/12/11 00:51:01;;;;;;;104.15;22.17;;;0.00;99.90;;;;;;5053320;28;20095;-80
2022/12/11 00:53:26;;;;;;;103.18;22.67;;;0.00;99.90;;;;;;5053117;28;20056;-80
2022/12/11 00:55:55;;;;;;;107.57;22.42;;;0.20;99.90;;;;;;5053981;28;20044;-80
2022/12/11 00:58:20;;;;;;;101.05;23.88;;;0.00;99.90;;;;;;5054132;28;20072;-80
2022/12/11 01:00:47;;;;;;;94.90;22.40;;;0.00;99.90;;;;;;5053115;28;20075;-80
2022/12/11 01:03:13;;;;;;;137.73;25.10;;;0.20;99.90;;;;;;5054217;28;20150;-80
2022/12/11 01:05:39;;;;;;;126.07;25.08;;;0.20;99.90;;;;;;5052861;28;20044;-80
2022/12/11 01:08:05;;;;;;;102.65;23.08;;;0.00;99.90;;;;;;5052996;28;20051;-80
2022/12/11 01:10:32;;;;;;;92.45;20.48;;;0.10;99.90;;;;;;5053821;28;20068;-80
2022/12/11 01:13:04;;;;;;;115.80;23.75;;;0.10;99.90;;;;;;5053014;28;20385;-80
2022/12/11 01:15:38;;;;;;;105.57;22.67;;;0.20;99.90;;;;;;5054082;28;20073;-80
2022/12/11 01:18:04;;;;;;;117.90;23.70;;;0.10;99.90;;;;;;5052942;28;20041;-80
2022/12/11 01:20:30;;;;;;;125.28;24.23;;;0.20;99.90;;;;;;5052587;28;20079;-80
2022/12/11 01:22:58;;;;;;;142.85;23.55;;;0.20;99.90;;;;;;5053370;28;20085;-80
2022/12/11 01:25:24;;;;;;;129.15;25.20;;;0.10;99.90;;;;;;5052349;28;20495;-80
2022/12/11 01:27:51;;;;;;;110.53;25.42;;;0.20;99.90;;;;;;5052626;28;20045;-80
2022/12/11 01:30:17;;;;;;;123.50;22.20;;;0.20;99.90;;;;;;5052579;28;20044;-80
2022/12/11 01:32:43;;;;;;;121.15;24.27;;;0.10;99.90;;;;;;5053764;28;20060;-80
2022/12/11 01:35:10;;;;;;;105.20;22.38;;;0.30;99.90;;;;;;5052459;28;20397;-80
2022/12/11 01:37:35;;;;;;;111.25;22.35;;;0.20;99.90;;;;;;5053598;28;20045;-80
2022/12/11 01:40:02;;;;;;;121.88;24.80;;;0.30;99.90;;;;;;5052228;28;20056;-80
2022/12/11 01:42:28;;;;;;;115.18;21.75;;;0.30;99.90;;;;;;5052294;28;20369;-80
2022/12/11 01:45:20;;;;;;;106.38;23.60;;;0.30;99.90;;;;;;5053517;28;20547;-80
2022/12/11 01:48:11;;;;;;;127.60;25.00;;;0.40;99.90;;;;;;5052503;28;20041;-80
2022/12/11 01:50:46;;;;;;;112.72;23.95;;;0.20;99.90;;;;;;5052167;28;20090;-80
2022/12/11 01:53:27;;;;;;;114.45;23.80;;;0.40;99.90;;;;;;5052162;28;20139;-80
2022/12/11 01:55:56;;;;;;;114.07;23.00;;;0.30;99.90;;;;;;5052494;28;20076;-80
2022/12/11 01:58:25;;;;;;;122.85;23.27;;;0.20;99.90;;;;;;5052462;28;20036;-80
2022/12/11 02:00:52;;;;;;;110.15;24.75;;;0.20;99.90;;;;;;5052017;28;20178;-80
2022/12/11 02:03:18;;;;;;;108.70;23.67;;;0.40;99.90;;;;;;5052003;28;20090;-80
2022/12/11 02:05:44;;;;;;;126.75;25.55;;;0.20;99.90;;;;;;5052333;28;20080;-80
2022/12/11 02:08:10;;;;;;;117.70;23.85;;;0.40;99.90;;;;;;5052246;28;20142;-80
2022/12/11 02:10:48;;;;;;;114.38;23.77;;;0.40;99.90;;;;;;5053293;28;20045;-80
2022/12/11 02:13:24;;;;;;;120.78;25.10;;;0.30;99.90;;;;;;5053185;28;20128;-80
2022/12/11 02:16:18;;;;;;;107.07;23.75;;;0.30;99.90;;;;;;5052030;28;20114;-80
2022/12/11 02:18:50;;;;;;;97.15;25.50;;;0.40;99.90;;;;;;5052045;28;20432;-80
2022/12/11 02:21:24;;;;;;;99.40;24.10;;;0.30;99.90;;;;;;5051707;28;20079;-80
2022/12/11 02:24:14;;;;;;;115.47;24.75;;;0.30;99.90;;;;;;5053613;28;20075;-80
2022/12/11 02:26:40;;;;;;;98.47;22.38;;;0.40;99.90;;;;;;5056128;28;20072;-80
2022/12/11 02:29:10;;;;;;;106.78;25.42;;;0.30;99.90;;;;;;5055691;28;20080;-80
2022/12/11 02:31:49;;;;;;;113.05;24.52;;;0.30;99.90;;;;;;5056117;28;20090;-80
2022/12/11 02:34:27;;;;;;;85.60;24.23;;;0.30;99.90;;;;;;5056455;28;20476;-80
2022/12/11 02:36:57;;;;;;;94.70;22.90;;;0.30;99.90;;;;;;5055628;28;20052;-80
2022/12/11 02:39:28;;;;;;;105.10;22.15;;;0.40;99.90;;;;;;5057263;28;20465;-80
2022/12/11 02:41:55;;;;;;;82.80;20.83;;;0.40;99.90;;;;;;5056804;28;20559;-80
2022/12/11 02:44:26;;;;;;;92.97;23.35;;;0.30;99.90;;;;;;5055370;28;20048;-80
2022/12/11 02:46:53;;;;;;;94.45;22.95;;;0.40;99.90;;;;;;5055871;28;20135;-80
2022/12/11 02:49:20;;;;;;;99.55;22.88;;;0.30;99.90;;;;;;5056665;28;20127;-80
2022/12/11 02:51:46;;;;;;;111.85;24.33;;;0.40;99.90;;;;;;5055260;28;20073;-80
2022/12/11 02:54:19;;;;;;;89.32;21.80;;;0.50;99.90;;;;;;5055550;28;20076;-80
2022/12/11 02:57:07;;;;;;;91.53;23.20;;;0.40;99.90;;;;;;5055368;28;20049;-80
2022/12/11 02:59:37;;;;;;;91.95;23.48;;;0.40;99.90;;;;;;5055363;28;20037;-80
2022/12/11 03:02:04;;;;;;;87.40;20.75;;;0.30;99.90;;;;;;5056520;28;20041;-80
2022/12/11 03:04:30;;;;;;;101.53;23.08;;;0.30;99.90;;;;;;5056472;28;20080;-80
2022/12/11 03:07:01;;;;;;;95.05;23.23;;;0.50;99.90;;;;;;5055401;28;20044;-80
2022/12/11 03:09:27;;;;;;;84.90;19.15;;;0.40;99.90;;;;;;5056049;28;20498;-80
2022/12/11 03:11:53;;;;;;;93.15;20.38;;;0.50;99.90;;;;;;5054831;28;20053;-80
2022/12/11 03:14:19;;;;;;;83.53;21.80;;;0.40;99.90;;;;;;5055157;28;20036;-80
2022/12/11 03:17:02;;;;;;;92.85;20.30;;;0.40;99.90;;;;;;5056169;28;20041;-80
2022/12/11 03:19:34;;;;;;;;;;;0.40;99.90;;;;;;5055611;28;20052;-80
2022/12/11 03:22:11;;;;;;;87.03;20.85;;;0.50;99.90;;;;;;5054511;28;20011;-80
2022/12/11 03:24:49;;;;;;;90.18;22.05;;;0.50;99.90;;;;;;5054692;28;20495;-80
2022/12/11 03:27:33;;;;;;;90.90;22.13;;;0.40;99.90;;;;;;5055915;28;20041;-80
2022/12/11 03:30:10;;;;;;;95.15;21.80;;;0.40;99.90;;;;;;5054638;28;20111;-80
2022/12/11 03:32:45;;;;;;;106.95;22.90;;;0.50;99.90;;;;;;5055663;28;20036;-80
2022/12/11 03:35:21;;;;;;;108.05;24.65;;;0.50;99.90;;;;;;5053917;28;20053;-80
2022/12/11 03:37:49;;;;;;;95.28;22.15;;;0.60;99.90;;;;;;5055769;28;20492;-80
2022/12/11 03:40:17;;;;;;;109.03;24.58;;;0.60;99.90;;;;;;5055564;28;20059;-80
2022/12/11 03:42:48;;;;;;;95.78;22.90;;;0.50;99.90;;;;;;5054283;28;20053;-80
2022/12/11 03:45:16;;;;;;;107.68;24.17;;;0.50;99.90;;;;;;5055697;28;20079;-79
2022/12/11 03:47:44;;;;;;;97.75;24.27;;;0.40;99.90;;;;;;5054561;28;20056;-80
2022/12/11 03:50:12;;;;;;;113.68;24.23;;;0.60;99.90;;;;;;5054557;28;20048;-80
2022/12/11 03:52:41;;;;;;;88.97;20.58;;;0.40;99.90;;;;;;5055532;28;20084;-80
2022/12/11 03:55:07;;;;;;;92.40;22.75;;;0.50;99.90;;;;;;5054461;28;20122;-80
2022/12/11 03:57:36;;;;;;;115.40;23.63;;;0.60;99.90;;;;;;5055231;28;20062;-80
2022/12/11 04:00:08;;;;;;;104.18;23.50;;;0.50;99.90;;;;;;5054218;28;20378;-80
2022/12/11 04:02:33;;;;;;;113.13;24.50;;;0.50;99.90;;;;;;5055550;28;20119;-80
2022/12/11 04:04:59;;;;;;;118.47;27.15;;;0.60;99.90;;;;;;5055254;28;20471;-80
2022/12/11 04:07:24;;;;;;;105.68;22.73;;;0.60;99.90;;;;;;5055206;28;20087;-80
2022/12/11 04:09:50;;;;;;;111.05;24.70;;;0.50;99.90;;;;;;5054951;28;20140;-80
2022/12/11 04:12:16;;;;;;;105.38;22.98;;;0.50;99.90;;;;;;5055192;28;20391;-80
2022/12/11 04:25:39;;;;;;;110.78;24.02;;;0.60;99.90;;;;;;5053604;28;20103;-80
2022/12/11 04:28:05;;;;;;;108.20;23.13;;;0.50;99.90;;;;;;5054785;28;20045;-80
2022/12/11 04:30:30;;;;;;;121.57;24.63;;;0.50;99.90;;;;;;5053636;28;20868;-80
2022/12/11 04:32:56;;;;;;;105.13;23.63;;;0.60;99.90;;;;;;5054580;28;20435;-80
2022/12/11 04:35:22;;;;;;;105.50;23.67;;;0.70;99.90;;;;;;5054697;28;20389;-80
2022/12/11 04:37:48;;;;;;;110.57;23.48;;;0.70;99.90;;;;;;5053355;28;20045;-80
2022/12/11 04:40:15;;;;;;;115.20;23.75;;;0.50;99.90;;;;;;5054569;28;20080;-80
2022/12/11 04:42:41;;;;;;;108.55;25.42;;;0.60;99.90;;;;;;5054272;28;20037;-80
2022/12/11 04:45:08;;;;;;;108.22;23.75;;;0.60;99.90;;;;;;5053304;28;20041;-80
2022/12/11 04:47:36;;;;;;;94.07;22.27;;;0.60;99.90;;;;;;5053778;28;20052;-80
2022/12/11 04:50:03;;;;;;;110.20;24.88;;;0.50;99.90;;;;;;5052935;28;20382;-80
2022/12/11 04:52:29;;;;;;;100.38;22.23;;;0.70;99.90;;;;;;5053074;28;20049;-80
2022/12/11 04:54:55;;;;;;;109.53;23.85;;;0.60;99.90;;;;;;5053027;28;20049;-80
2022/12/11 04:57:21;;;;;;;112.70;24.92;;;0.60;99.90;;;;;;5053028;28;20052;-80
2022/12/11 04:59:47;;;;;;;101.07;23.15;;;0.70;99.90;;;;;;5053205;28;20044;-80
2022/12/11 05:02:13;;;;;;;107.65;25.52;;;0.60;99.90;;;;;;5054088;28;20048;-80
2022/12/11 05:04:38;;;;;;;101.53;22.95;;;0.50;99.90;;;;;;5052838;28;20052;-80
2022/12/11 05:07:04;;;;;;;120.05;24.60;;;0.50;99.90;;;;;;5052834;28;20045;-80
2022/12/11 05:09:30;;;;;;;111.78;24.52;;;0.50;99.90;;;;;;5052816;28;20049;-80
2022/12/11 05:11:55;;;;;;;108.40;22.90;;;0.70;99.90;;;;;;5052820;28;20045;-80
2022/12/11 05:14:21;;;;;;;121.40;26.27;;;0.70;99.90;;;;;;5053764;28;20045;-80
2022/12/11 05:16:47;;;;;;;111.70;22.90;;;0.70;99.90;;;;;;5052847;28;20389;-80
2022/12/11 05:19:13;;;;;;;102.97;22.00;;;0.60;99.90;;;;;;5053850;28;20045;-80
2022/12/11 05:21:38;;;;;;;100.50;23.50;;;0.60;99.90;;;;;;5052576;28;20092;-80
2022/12/11 05:24:04;;;;;;;108.63;25.48;;;0.60;99.90;;;;;;5052593;28;20131;-80
2022/12/11 05:26:30;;;;;;;105.65;23.23;;;0.70;99.90;;;;;;5052806;28;20044;-80
2022/12/11 05:28:56;;;;;;;107.53;23.67;;;0.60;99.90;;;;;;5052225;28;20045;-80
2022/12/11 05:31:24;;;;;;;106.05;24.23;;;0.70;99.90;;;;;;5053745;28;20094;-80
2022/12/11 05:33:50;;;;;;;101.85;22.50;;;0.50;99.90;;;;;;5052588;28;20074;-80
2022/12/11 05:36:21;;;;;;;123.82;25.05;;;0.60;99.90;;;;;;5052249;28;20524;-80
2022/12/11 05:38:47;;;;;;;103.45;23.60;;;0.60;99.90;;;;;;5052690;28;20048;-80
2022/12/11 05:41:15;;;;;;;111.10;24.98;;;0.60;99.90;;;;;;5052600;28;20067;-80
2022/12/11 05:43:41;;;;;;;93.00;23.35;;;0.60;99.90;;;;;;5052242;28;20501;-80
2022/12/11 05:46:09;;;;;;;98.88;21.25;;;0.60;99.90;;;;;;5052144;28;20045;-80
2022/12/11 05:48:36;;;;;;;97.57;22.83;;;0.70;99.90;;;;;;5052145;28;20041;-80
2022/12/11 05:51:03;;;;;;;114.55;24.30;;;0.70;99.90;;;;;;5052497;28;20117;-80
2022/12/11 05:53:29;;;;;;;97.18;23.67;;;0.60;99.90;;;;;;5052223;28;20496;-80
2022/12/11 05:56:01;;;;;;;117.72;26.08;;;0.60;99.90;;;;;;5052158;28;20041;-80
2022/12/11 05:58:27;;;;;;;98.47;23.13;;;0.50;99.90;;;;;;5054817;28;20044;-80
2022/12/11 06:00:53;;;;;;;134.38;26.33;;;0.70;99.90;;;;;;5056240;28;20292;-80
2022/12/11 06:03:18;;;;;;;108.65;23.02;;;0.60;99.90;;;;;;5057600;28;20480;-80
2022/12/11 06:05:44;;;;;;;103.80;22.63;;;0.70;99.90;;;;;;5056542;28;20504;-80
2022/12/11 06:08:09;;;;;;;104.28;25.63;;;0.60;99.90;;;;;;5056330;28;20045;-80
2022/12/11 06:10:35;;;;;;;105.55;22.20;;;0.80;99.90;;;;;;5055984;28;20041;-81
2022/12/11 06:13:00;;;;;;;102.90;24.27;;;0.60;99.90;;;;;;5055943;28;20064;-81
2022/12/11 06:15:26;;;;;;;101.90;22.60;;;0.70;99.90;;;;;;5056273;28;20090;-80
2022/12/11 06:17:52;;;;;;;105.47;24.30;;;0.60;99.90;;;;;;5057234;28;20164;-81
2022/12/11 06:20:17;;;;;;;109.85;23.45;;;0.80;99.90;;;;;;5056114;28;20536;-81
2022/12/11 06:22:43;;;;;;;103.65;22.98;;;0.60;99.90;;;;;;5055595;28;20057;-80
2022/12/11 06:25:09;;;;;;;112.95;24.58;;;0.80;99.90;;;;;;5056263;28;20500;-80
2022/12/11 06:27:35;;;;;;;107.50;25.60;;;0.70;99.90;;;;;;5055727;28;20446;-80
2022/12/11 06:30:00;;;;;;;91.80;22.58;;;0.70;99.90;;;;;;5055656;28;20049;-80
2022/12/11 06:32:26;;;;;;;105.97;23.27;;;0.60;99.90;;;;;;5056060;28;20084;-80
2022/12/11 06:34:52;;;;;;;96.30;24.08;;;0.70;99.90;;;;;;5057085;28;20049;-80
2022/12/11 06:37:17;;;;;;;103.15;22.85;;;0.80;99.90;;;;;;5056980;28;20036;-80
2022/12/11 06:39:43;;;;;;;111.63;25.55;;;0.70;99.90;;;;;;5055933;28;20048;-80
2022/12/11 06:42:09;;;;;;;92.93;22.70;;;0.70;99.90;;;;;;5055481;28;20041;-80
2022/12/11 06:44:34;;;;;;;100.28;24.63;;;0.80;99.90;;;;;;5055492;28;20136;-80
2022/12/11 06:47:00;;;;;;;96.65;22.58;;;0.70;99.90;;;;;;5055457;28;20044;-80
2022/12/11 06:49:26;;;;;;;98.47;20.67;;;0.70;99.90;;;;;;5055366;28;20051;-80
2022/12/11 06:51:51;;;;;;;96.93;23.98;;;0.60;99.90;;;;;;5055446;28;20132;-80
2022/12/11 06:54:17;;;;;;;100.80;22.98;;;0.60;99.90;;;;;;5055437;28;20100;-80
2022/12/11 06:56:42;;;;;;;86.20;21.85;;;0.70;99.90;;;;;;5056411;28;20381;-80
2022/12/11 06:59:11;;;;;;;95.85;24.25;;;0.80;99.90;;;;;;5056563;28;20033;-80
2022/12/11 07:01:40;;;;;;;97.60;22.50;;;0.60;99.90;;;;;;5055477;28;20095;-81
2022/12/11 07:04:05;;;;;;;105.25;24.00;;;0.70;99.90;;;;;;5055174;28;20057;-81
2022/12/11 07:06:31;;;;;;;79.85;20.63;;;0.80;99.90;;;;;;5056396;28;20141;-81
2022/12/11 07:08:57;;;;;;;101.78;22.75;;;0.60;99.90;;;;;;5056432;28;20147;-80
2022/12/11 07:11:22;;;;;;;89.03;21.17;;;0.70;99.90;;;;;;5053750;28;20476;-80
2022/12/11 07:13:48;;;;;;;96.80;22.83;;;0.80;99.90;;;;;;5056021;28;20056;-80
2022/12/11 07:16:16;;;;;;;84.15;21.45;;;0.80;99.90;;;;;;5054896;28;20080;-80
2022/12/11 07:18:46;;;;;;;85.10;20.05;;;0.80;99.90;;;;;;5055094;28;20121;-80
2022/12/11 07:21:12;;;;;;;76.50;23.38;;;0.70;99.90;;;;;;5054714;28;20045;-80
2022/12/11 07:23:39;;;;;;;80.65;21.27;;;0.70;99.90;;;;;;5054669;28;20115;-80
2022/12/11 07:26:07;;;;;;;79.75;22.00;;;0.80;99.90;;;;;;5054650;28;20047;-80
2022/12/11 07:28:33;;;;;;;97.32;22.00;;;0.70;99.90;;;;;;5054569;28;20048;-80
2022/12/11 07:31:03;;;;;;;77.60;22.48;;;0.60;99.90;;;;;;5054601;28;20480;-80
2022/12/11 07:33:29;;;;;;;88.05;22.85;;;0.70;99.90;;;;;;5054679;28;20045;-80
2022/12/11 07:35:54;;;;;;;91.35;22.00;;;0.60;99.90;;;;;;5054542;28;20048;-80
2022/12/11 07:38:20;;;;;;;96.00;22.20;;;0.60;99.90;;;;;;5054657;28;20045;-80
2022/12/11 07:40:46;;;;;;;85.70;21.23;;;0.70;99.90;;;;;;5054295;28;20052;-81
2022/12/11 07:43:11;;;;;;;86.57;21.45;;;0.60;99.90;;;;;;5054277;28;20136;-80
2022/12/11 07:45:38;;;;;;;85.63;21.00;;;0.60;99.90;;;;;;5054134;28;20036;-80
2022/12/11 07:48:03;;;;;;;81.50;20.13;;;0.60;99.90;;;;;;5054448;28;20135;-80
2022/12/11 07:50:29;;;;;;;89.20;22.20;;;0.70;99.90;;;;;;5054378;28;20437;-80
2022/12/11 07:52:55;;;;;;;82.03;20.85;;;0.70;99.90;;;;;;5054169;28;20045;-80
2022/12/11 07:55:20;;;;;;;75.30;19.27;;;0.60;99.90;;;;;;5053773;28;20137;-80
2022/12/11 07:57:46;;;;;;;81.43;20.05;;;0.70;99.90;;;;;;5053152;28;20052;-80
2022/12/11 08:00:12;;;;;;;81.43;19.92;;;0.70;99.90;;;;;;5053007;28;20071;-80
2022/12/11 08:02:37;;;;;;;72.22;20.75;;;0.60;99.90;;;;;;5054089;28;20060;-80
2022/12/11 08:05:03;;;;;;;79.72;20.90;;;0.80;99.90;;;;;;5053778;28;20041;-80
2022/12/11 08:07:29;;;;;;;78.15;20.95;;;0.70;99.90;;;;;;5055435;28;20076;-80
2022/12/11 08:09:55;;;;;;;76.20;20.75;;;0.60;99.90;;;;;;5053666;28;20475;-80
2022/12/11 08:12:20;;;;;;;76.72;19.05;;;0.70;99.90;;;;;;5054918;28;20053;-80
2022/12/11 08:14:46;;;;;;;88.30;21.23;;;0.70;99.90;;;;;;5053819;28;20052;-80
2022/12/11 08:17:12;;;;;;;80.18;20.88;;;0.60;99.90;;;;;;5054899;28;20068;-80
2022/12/11 08:19:37;;;;;;;73.70;19.75;;;0.60;99.90;;;;;;5053793;28;20037;-80
2022/12/11 08:22:03;;;;;;;79.53;20.33;;;0.70;99.90;;;;;;5052612;28;20138;-80
2022/12/11 08:24:29;;;;;;;67.10;19.42;;;0.70;99.90;;;;;;5054976;28;20076;-80
2022/12/11 08:26:54;;;;;;;59.15;17.83;;;0.80;99.90;;;;;;5054144;28;20067;-80
2022/12/11 08:29:20;;;;;;;73.75;19.90;;;0.70;99.90;;;;;;5053298;28;20396;-80
2022/12/11 08:31:45;;;;;;;85.05;19.92;;;0.80;99.90;;;;;;5053617;28;20045;-80
2022/12/11 08:34:12;;;;;;;73.47;19.02;;;0.70;99.90;;;;;;5053539;28;20044;-79
2022/12/11 08:36:38;;;;;;;66.88;18.27;;;0.70;99.90;;;;;;5053494;28;20072;-79
2022/12/11 08:39:04;;;;;;;67.03;20.08;;;0.80;99.90;;;;;;5054506;28;20095;-80
2022/12/11 08:41:30;;;;;;;76.13;19.85;;;0.70;99.90;;;;;;5053340;28;20090;-79
2022/12/11 08:43:57;;;;;;;79.35;19.73;;;0.90;99.90;;;;;;5053082;28;20045;-80
2022/12/11 08:46:26;;;;;;;58.50;19.42;;;0.80;99.90;;;;;;5054475;28;20040;-82
2022/12/11 08:48:53;;;;;;;84.03;20.70;;;0.80;99.90;;;;;;5052859;28;20052;-79
2022/12/11 08:51:21;;;;;;;68.70;21.30;;;0.80;99.90;;;;;;5054221;28;20396;-79
2022/12/11 08:53:48;;;;;;;73.93;20.55;;;0.90;99.90;;;;;;5047269;28;20063;-79
2022/12/11 08:56:17;;;;;;;70.10;21.10;;;0.90;99.90;;;;;;5034370;28;20461;-79
2022/12/11 08:58:43;;;;;;;73.40;21.35;;;0.80;99.90;;;;;;5032683;28;20060;-79
2022/12/11 09:01:20;;;;;;;81.07;22.65;;;0.80;99.90;;;;;;5033837;28;20446;-80
2022/12/11 09:03:46;;;;;;;68.97;19.65;;;0.80;99.90;;;;;;5032594;28;20132;-78
2022/12/11 09:06:15;;;;;;;78.57;20.33;;;0.90;99.90;;;;;;5033820;28;20110;-79
2022/12/11 09:08:41;;;;;;;77.18;20.40;;;0.90;99.90;;;;;;5033703;28;20366;-79
2022/12/11 09:11:16;;;;;;;75.40;21.42;;;0.90;99.90;;;;;;5032756;28;20049;-79
2022/12/11 09:13:42;;;;;;;70.75;21.88;;;0.90;99.90;;;;;;5033675;28;20037;-79
2022/12/11 09:16:11;;;;;;;80.93;19.75;;;1.00;99.90;;;;;;5033671;28;20049;-79
2022/12/11 09:18:38;;;;;;;66.45;19.55;;;1.00;99.90;;;;;;5033860;28;20143;-79
2022/12/11 09:21:06;;;;;;;82.75;22.13;;;1.10;99.90;;;;;;5033807;28;20071;-79
2022/12/11 09:23:32;;;;;;;77.70;22.63;;;1.00;99.90;;;;;;5033580;28;20053;-80
2022/12/11 09:25:58;;;;;;;84.53;22.42;;;1.00;99.90;;;;;;5032270;28;20048;-81
2022/12/11 09:28:24;;;;;;;75.90;22.67;;;0.90;99.90;;;;;;5033365;28;20041;-80
2022/12/11 09:30:51;;;;;;;73.03;20.40;;;0.90;99.90;;;;;;5033375;28;20128;-80
2022/12/11 09:33:17;;;;;;;81.60;22.85;;;1.10;99.90;;;;;;5031708;28;20041;-82
2022/12/11 09:35:43;;;;;;;73.65;21.33;;;1.10;99.90;;;;;;5031838;28;20050;-79
2022/12/11 09:38:11;;;;;;;77.70;22.05;;;0.90;99.90;;;;;;5033307;28;20100;-79
2022/12/11 09:40:42;;;;;;;84.70;22.30;;;1.10;99.90;;;;;;5032065;28;20107;-80
2022/12/11 09:43:38;;;;;;;78.65;20.77;;;1.20;99.90;;;;;;5033414;28;20045;-79
2022/12/11 09:46:12;;;;;;;77.80;21.48;;;1.00;99.90;;;;;;5030236;28;20049;-79
2022/12/11 09:48:47;;;;;;;84.25;20.48;;;1.20;99.90;;;;;;5015520;28;20053;-79
2022/12/11 09:51:35;;;;;;;77.35;21.30;;;1.10;99.90;;;;;;5033141;28;20571;-80
2022/12/11 09:54:03;;;;;;;82.90;22.67;;;1.10;99.90;;;;;;5031968;28;20485;-80
2022/12/11 09:56:43;;;;;;;86.15;22.92;;;1.00;99.90;;;;;;5031928;28;20049;-80
2022/12/11 09:59:17;;;;;;;73.97;23.60;;;1.00;99.90;;;;;;5032223;28;20049;-80
2022/12/11 10:02:05;;;;;;;86.22;22.67;;;1.20;99.90;;;;;;5031962;28;20505;-80
2022/12/11 10:04:33;;;;;;;102.45;26.48;;;1.20;99.90;;;;;;5032212;28;20041;-80
2022/12/11 10:07:40;;;;;;;79.65;22.02;;;1.30;99.90;;;;;;5031805;28;20052;-80
2022/12/11 10:10:17;;;;;;;91.15;22.30;;;1.10;99.90;;;;;;5033178;28;20117;-79
2022/12/11 10:13:02;;;;;;;86.40;23.45;;;1.20;99.90;;;;;;5033207;28;20124;-80
2022/12/11 10:15:38;;;;;;;81.82;22.58;;;1.10;99.90;;;;;;5032020;28;20099;-80
2022/12/11 10:18:10;;;;;;;74.63;20.17;;;1.10;99.90;;;;;;5031759;28;20056;-80
2022/12/11 10:20:39;;;;;;;79.10;21.27;;;1.30;99.90;;;;;;5033240;28;20116;-81
2022/12/11 10:23:15;;;;;;;79.80;22.10;;;1.10;99.90;;;;;;5032756;28;20143;-80
2022/12/11 10:25:48;;;;;;;96.40;27.27;;;1.20;99.90;;;;;;5032867;28;20515;-82
2022/12/11 10:28:15;;;;;;;;;;;1.10;99.90;;;;;;5032070;28;20047;-79
2022/12/11 10:31:17;;;;;;;83.30;23.90;;;1.30;99.90;;;;;;5031496;28;19921;-80
2022/12/11 10:34:02;;;;;;;87.53;22.60;;;1.20;99.90;;;;;;5031723;28;20132;-80
2022/12/11 10:36:35;;;;;;;77.97;23.10;;;1.30;99.90;;;;;;5031510;28;20485;-80
2022/12/11 10:39:02;;;;;;;76.20;22.25;;;1.40;99.90;;;;;;5031533;28;20046;-79
2022/12/11 10:41:38;;;;;;;73.75;21.83;;;1.40;99.90;;;;;;5031807;28;20224;-79
2022/12/11 10:44:24;;;;;;;90.88;26.10;;;1.30;99.90;;;;;;5031987;28;20099;-79
2022/12/11 10:47:10;;;;;;;82.25;22.55;;;1.40;99.90;;;;;;5036679;28;20095;-79
2022/12/11 10:49:37;;;;;;;71.72;22.58;;;1.30;99.90;;;;;;5035089;28;20081;-79
2022/12/11 10:52:30;;;;;;;77.35;22.73;;;1.30;99.90;;;;;;5035312;28;20512;-79
2022/12/11 10:55:03;;;;;;;80.18;22.90;;;1.40;99.90;;;;;;5035168;28;20058;-80
2022/12/11 10:57:38;;;;;;;72.65;20.13;;;1.50;99.90;;;;;;5035283;28;20049;-79
2022/12/11 11:00:25;;;;;;;83.07;23.65;;;1.30;99.90;;;;;;5035142;28;20045;-79
2022/12/11 11:02:50;;;;;;;77.03;22.27;;;1.40;99.90;;;;;;5035184;28;20080;-79
2022/12/11 11:05:34;;;;;;;80.78;23.83;;;1.60;99.90;;;;;;5035093;28;20084;-80
2022/12/11 11:08:18;;;;;;;76.32;21.90;;;1.50;99.90;;;;;;5035017;28;20192;-78
2022/12/11 11:10:50;;;;;;;83.50;23.15;;;1.60;99.90;;;;;;5034805;28;20041;-78
2022/12/11 11:13:16;;;;;;;71.60;22.73;;;1.50;99.90;;;;;;5035271;28;20099;-78
2022/12/11 11:15:42;;;;;;;76.88;24.77;;;1.50;99.90;;;;;;5035813;28;20451;-78
2022/12/11 11:18:21;;;;;;;78.35;24.73;;;1.70;99.90;;;;;;5034899;28;20056;-78
2022/12/11 11:20:47;;;;;;;75.18;23.65;;;1.80;99.90;;;;;;5034809;28;20053;-78
2022/12/11 11:23:15;;;;;;;76.25;23.85;;;1.60;99.90;;;;;;5034388;28;20056;-78
2022/12/11 11:26:05;;;;;;;73.32;20.50;;;1.60;99.90;;;;;;5035895;28;20045;-78
2022/12/11 11:28:37;;;;;;;67.95;22.48;;;1.60;99.90;;;;;;5035608;28;20045;-78
2022/12/11 11:31:07;;;;;;;70.28;21.70;;;1.60;99.90;;;;;;5034475;28;20056;-78
2022/12/11 11:33:34;;;;;;;83.63;23.98;;;1.60;99.90;;;;;;5035464;28;20489;-78
2022/12/11 11:36:06;;;;;;;66.35;21.42;;;1.60;99.90;;;;;;5034357;28;20057;-78
2022/12/11 11:38:36;;;;;;;71.20;20.90;;;1.80;99.90;;;;;;5035819;28;20045;-83
2022/12/11 11:41:46;;;;;;;79.03;23.50;;;1.80;99.90;;;;;;5035512;28;20063;-78
2022/12/11 11:44:17;;;;;;;65.40;22.50;;;1.60;99.90;;;;;;5034138;28;20088;-79
2022/12/11 11:47:21;;;;;;;73.72;21.98;;;1.80;99.90;;;;;;5034174;28;20053;-78
2022/12/11 11:49:54;;;;;;;59.17;19.77;;;1.70;99.90;;;;;;5030574;28;20053;-86
2022/12/11 11:52:29;;;;;;;;;;;1.70;99.90;;;;;;5035821;28;20079;-79
2022/12/11 11:55:08;;;;;;;62.03;19.40;;;1.70;99.90;;;;;;5035365;28;19921;-78
2022/12/11 11:57:48;;;;;;;70.00;23.00;;;1.90;99.90;;;;;;5034434;28;20559;-78
2022/12/11 12:00:25;;;;;;;62.38;21.65;;;1.90;99.90;;;;;;5033790;28;20050;-78
2022/12/11 12:02:56;;;;;;;64.18;22.40;;;1.80;99.90;;;;;;5035353;28;20081;-78
2022/12/11 12:05:28;;;;;;;69.35;21.98;;;1.80;99.90;;;;;;5033745;28;20542;-79
2022/12/11 12:08:05;;;;;;;64.30;20.92;;;1.80;99.90;;;;;;5033989;28;20057;-79
2022/12/11 12:10:46;;;;;;;61.83;21.83;;;1.80;99.90;;;;;;5033615;28;20056;-79
2022/12/11 12:13:29;;;;;;;63.10;20.40;;;1.90;99.90;;;;;;5034932;28;20132;-79
2022/12/11 12:15:59;;;;;;;66.88;22.08;;;2.00;99.90;;;;;;5034912;28;20115;-79
2022/12/11 12:19:02;;;;;;;67.15;22.75;;;1.90;99.90;;;;;;5035170;28;20038;-79
2022/12/11 12:21:41;;;;;;;62.88;22.02;;;2.00;99.90;;;;;;5033496;28;20549;-80
2022/12/11 12:24:25;;;;;;;64.90;22.25;;;1.80;99.90;;;;;;5034594;28;20057;-79
2022/12/11 12:26:52;;;;;;;63.03;20.77;;;1.90;99.90;;;;;;5034818;28;20077;-79
2022/12/11 12:29:46;;;;;;;64.30;20.63;;;1.80;99.90;;;;;;5033366;28;20128;-78
2022/12/11 12:32:18;;;;;;;57.25;20.92;;;1.90;99.90;;;;;;5034375;28;20405;-79
2022/12/11 12:35:02;;;;;;;58.30;21.20;;;2.00;99.90;;;;;;5033492;28;20541;-79
2022/12/11 12:37:52;;;;;;;60.95;19.90;;;2.00;99.90;;;;;;5033156;28;20045;-79
2022/12/11 12:40:28;;;;;;;63.50;20.80;;;1.90;99.90;;;;;;5033364;28;20056;-78
2022/12/11 12:43:22;;;;;;;61.85;21.08;;;1.90;99.90;;;;;;5033337;28;20100;-79
2022/12/11 12:46:17;;;;;;;68.28;21.20;;;2.10;99.90;;;;;;5033261;28;20061;-79
2022/12/11 12:48:44;;;;;;;66.60;21.52;;;2.00;99.90;;;;;;5030303;28;20448;-79
2022/12/11 12:51:13;;;;;;;57.65;20.33;;;1.90;99.90;;;;;;5033084;28;20049;-79
2022/12/11 12:53:44;;;;;;;57.83;19.77;;;2.10;99.90;;;;;;5034264;28;20041;-79
2022/12/11 12:56:11;;;;;;;58.85;21.58;;;2.10;99.90;;;;;;5032794;28;20519;-78
2022/12/11 12:58:42;;;;;;;59.28;21.75;;;2.00;99.90;;;;;;5040419;28;20037;-77
2022/12/11 13:01:14;;;;;;;55.50;19.63;;;1.90;99.90;;;;;;5052571;28;20130;-77